Time;durP1;ratioP1;P1;durP2;ratioP2;P2;SDS_P1;SDS_P2;PMS_P1;PMS_P2;Temp;Humidity;BMP_temperature;BMP_pressure;BME280_temperature;BME280_humidity;BME280_pressure;Samples;Min_cycle;Max_cycle;Signal;HPM_P1;HPM_P2
2023/12/25 00:02:44;;;;;;;0.40;0.20;;;;;;;9.44;100.00;98592.44;105916;1295;74569;-57
2023/12/25 00:05:40;;;;;;;;;;;;;;;;;;;;;
2023/12/25 00:08:30;;;;;;;0.70;0.30;;;;;;;9.50;100.00;98599.89;105923;1293;71415;-57
2023/12/25 00:12:07;;;;;;;;;;;;;;;;;;;;;
2023/12/25 00:15:29;;;;;;;;;;;;;;;;;;;;;
2023/12/25 00:18:16;;;;;;;1.00;0.40;;;;;;;9.51;100.00;98587.61;105430;1299;73233;-57
2023/12/25 00:21:02;;;;;;;2.20;0.30;;;;;;;9.50;100.00;98586.31;104984;1299;67356;-56
2023/12/25 00:23:49;;;;;;;1.60;0.50;;;;;;;9.47;100.00;98596.39;104200;1299;71013;-57
2023/12/25 00:26:35;;;;;;;;;;;;;;;9.47;100.00;98597.64;104202;1299;61553;-57
2023/12/25 00:29:21;;;;;;;;;;;;;;;9.46;100.00;98617.79;104195;1300;61172;-57
2023/12/25 00:32:08;;;;;;;2.40;2.20;;;;;;;9.43;100.00;98630.30;104203;1302;74198;-57
2023/12/25 00:34:54;;;;;;;1.40;0.40;;;;;;;9.39;100.00;98631.33;104173;1300;67315;-54
2023/12/25 00:37:40;;;;;;;1.80;0.60;;;;;;;9.37;100.00;98637.77;104211;1301;75249;-56
2023/12/25 00:40:37;;;;;;;1.30;0.30;;;;;;;9.32;100.00;98651.92;105102;1299;308052;-57
2023/12/25 00:43:53;;;;;;;1.40;0.30;;;;;;;9.31;100.00;98657.15;105446;1299;59089;-58
2023/12/25 00:46:48;;;;;;;1.40;0.40;;;;;;;9.28;100.00;98671.52;105689;1288;72416;-57
2023/12/25 00:49:37;;;;;;;4.00;0.40;;;;;;;9.25;100.00;98664.95;105484;1286;69933;-57
2023/12/25 00:52:23;;;;;;;1.60;0.40;;;;;;;9.25;100.00;98666.34;105406;1289;73090;-56
2023/12/25 00:55:10;;;;;;;2.10;0.50;;;;;;;9.22;100.00;98662.69;105507;1285;61342;-55
2023/12/25 00:57:56;;;;;;;0.80;0.40;;;;;;;9.18;100.00;98669.02;105540;1286;61717;-56
2023/12/25 01:00:42;;;;;;;5.20;0.60;;;;;;;9.15;100.00;98674.64;105455;1286;73155;-54
2023/12/25 01:03:29;;;;;;;3.90;0.70;;;;;;;9.11;100.00;98685.98;105445;1286;67937;-54
2023/12/25 01:06:15;;;;;;;2.50;0.70;;;;;;;9.09;100.00;98688.99;105518;1286;71262;-56
2023/12/25 01:09:01;;;;;;;62.10;17.20;;;;;;;9.07;100.00;98687.87;105419;1285;61513;-57
2023/12/25 01:11:47;;;;;;;1.90;0.20;;;;;;;9.06;100.00;98676.05;105325;1286;61662;-55
2023/12/25 01:14:34;;;;;;;0.60;0.40;;;;;;;9.04;100.00;98665.33;105496;1288;75929;-55
2023/12/25 01:17:20;;;;;;;2.00;0.60;;;;;;;9.02;100.00;98668.31;105495;1286;67163;-57
2023/12/25 01:20:07;;;;;;;2.80;0.80;;;;;;;8.98;100.00;98686.02;105481;1288;73258;-55
2023/12/25 01:22:53;;;;;;;2.10;0.60;;;;;;;8.94;100.00;98716.59;106732;1288;59613;-58
2023/12/25 01:25:52;;;;;;;2.70;0.80;;;;;;;8.91;100.00;98728.39;106761;1284;59075;-58
2023/12/25 01:29:26;;;;;;;1.70;0.60;;;;;;;8.91;100.00;98733.36;106602;1285;73458;-58
2023/12/25 01:32:14;;;;;;;3.70;0.50;;;;;;;8.92;100.00;98737.26;105551;1293;68611;-57
2023/12/25 01:35:00;;;;;;;3.30;0.80;;;;;;;8.93;100.00;98739.64;104687;1297;72367;-57
2023/12/25 01:37:47;;;;;;;384.40;155.00;;;;;;;8.92;100.00;98732.97;104724;1292;61290;-58
2023/12/25 01:40:35;;;;;;;1.80;0.50;;;;;;;8.91;100.00;98732.48;104668;1293;61292;-57
2023/12/25 01:43:21;;;;;;;1.80;0.60;;;;;;;8.88;100.00;98730.20;105058;1294;73166;-57
2023/12/25 01:46:12;;;;;;;2.40;0.60;;;;;;;8.85;100.00;98730.67;105358;1293;310099;-58
2023/12/25 01:48:59;;;;;;;116.80;25.40;;;;;;;8.82;100.00;98746.63;105951;1292;71400;-58
2023/12/25 01:51:45;;;;;;;2.60;0.40;;;;;;;8.80;100.00;98747.39;105996;1291;59398;-58
2023/12/25 01:54:43;;;;;;;;;;;;;;;;;;;;;
2023/12/25 01:57:44;;;;;;;;;;;;;;;;;;;;;
2023/12/25 02:00:34;;;;;;;3.20;0.90;;;;;;;8.68;100.00;98749.06;105972;1292;67418;-59
2023/12/25 02:03:41;;;;;;;4.10;0.70;;;;;;;8.62;100.00;98752.36;105954;1294;71231;-59
2023/12/25 02:06:37;;;;;;;3.50;0.60;;;;;;;8.58;100.00;98754.92;105979;1293;59176;-59
2023/12/25 02:09:49;;;;;;;4.50;0.70;;;;;;;8.53;100.00;98750.64;106438;1286;58974;-59
2023/12/25 02:12:36;;;;;;;29.10;6.10;;;;;;;8.55;100.00;98760.39;106771;1285;73812;-58
2023/12/25 02:15:23;;;;;;;7.40;1.10;;;;;;;8.58;100.00;98761.46;106748;1285;67234;-58
2023/12/25 02:18:09;;;;;;;29.20;7.80;;;;;;;8.60;100.00;98765.35;106657;1285;71203;-59
2023/12/25 02:21:06;;;;;;;1.80;0.80;;;;;;;8.63;100.00;98770.71;106723;1285;59008;-59
2023/12/25 02:24:05;;;;;;;3.10;0.60;;;;;;;8.66;100.00;98778.02;106744;1285;59710;-59
2023/12/25 02:27:16;;;;;;;1.20;0.50;;;;;;;8.68;100.00;98777.25;106701;1285;74543;-59
2023/12/25 02:30:11;;;;;;;2.50;0.50;;;;;;;8.70;100.00;98775.95;106745;1285;69055;-59
2023/12/25 02:33:04;;;;;;;;;;;;;;;8.75;100.00;98788.32;106656;1285;72408;-58
2023/12/25 02:36:10;;;;;;;450.10;221.20;;;;;;;8.76;100.00;98793.77;106707;1285;58934;-59
2023/12/25 02:39:12;;;;;;;;;;;;;;;;;;;;;
2023/12/25 02:42:35;;;;;;;1.30;0.60;;;;;;;8.77;100.00;98800.26;106742;1285;73309;-59
2023/12/25 02:45:43;;;;;;;22.00;7.90;;;;;;;8.76;100.00;98795.31;105981;1292;68514;-58
2023/12/25 02:48:56;;;;;;;4.70;1.00;;;;;;;8.79;100.00;98802.41;105972;1291;71457;-59
2023/12/25 02:51:53;;;;;;;3.30;0.70;;;;;;;8.82;100.00;98804.20;105702;1295;59108;-58
2023/12/25 02:55:08;;;;;;;4.70;0.80;;;;;;;8.82;100.00;98805.21;106012;1293;58939;-58
2023/12/25 02:57:57;;;;;;;2.20;0.60;;;;;;;8.83;100.00;98810.33;105948;1294;74473;-59
2023/12/25 03:00:44;;;;;;;3.00;0.70;;;;;;;8.81;100.00;98810.60;105958;1294;67509;-59
2023/12/25 03:03:30;;;;;;;1557.00;275.10;;;;;;;8.80;100.00;98818.36;98593;1294;10002095;-59
2023/12/25 03:06:16;;;;;;;83.60;27.60;;;;;;;8.78;100.00;98829.08;104994;1293;61381;-58
2023/12/25 03:09:13;;;;;;;2.90;0.80;;;;;;;8.77;100.00;98838.05;32459;1294;10073704;-59
2023/12/25 03:11:59;;;;;;;;;;;;;;;8.77;100.00;98847.65;105968;1292;59391;-59
2023/12/25 03:14:56;;;;;;;;;;;;;;;;;;;;;
2023/12/25 03:17:52;;;;;;;2.80;1.00;;;;;;;8.75;100.00;98844.99;105937;1292;74595;-58
2023/12/25 03:20:38;;;;;;;;;;;;;;;8.72;100.00;98844.75;105997;1294;67463;-58
2023/12/25 03:23:34;;;;;;;3.00;0.20;;;;;;;8.68;100.00;98845.94;106700;1285;72622;-57
2023/12/25 03:26:41;;;;;;;1.80;0.30;;;;;;;8.65;100.00;98850.34;106741;1284;59060;-58
2023/12/25 03:29:26;;;;;;;4.40;0.50;;;;;;;8.57;100.00;98848.38;106718;1285;59711;-58
2023/12/25 03:32:13;;;;;;;1.60;0.50;;;;;;;8.57;100.00;98846.70;106741;1284;74434;-59
2023/12/25 03:38:30;;;;;;;3.60;0.70;;;;;;;8.53;100.00;98848.70;106088;1290;71331;-59
2023/12/25 03:41:26;;;;;;;;;;;;;;;;;;;;;
2023/12/25 03:44:22;;;;;;;;;;;;;;;;;;;;;
2023/12/25 03:47:15;;;;;;;698.60;154.60;;;;;;;8.48;100.00;98883.40;106095;1291;74210;-58
2023/12/25 03:50:01;;;;;;;5.80;1.00;;;;;;;8.45;100.00;98891.75;106131;1291;67402;-59
2023/12/25 03:53:01;;;;;;;3.80;0.90;;;;;;;8.41;100.00;98893.79;106117;1290;71385;-58
2023/12/25 03:56:08;;;;;;;5.40;0.60;;;;;;;8.42;100.00;98881.73;105588;1296;59195;-58
2023/12/25 03:59:26;;;;;;;;;;;;;;;;;;;;;
2023/12/25 04:09:20;;;;;;;8.00;3.40;;;;;;;8.51;100.00;98877.13;104558;1310;71445;-59
2023/12/25 04:12:22;;;;;;;3.50;1.40;;;;;;;8.51;100.00;98868.88;104329;1309;59350;-59
2023/12/25 04:15:21;;;;;;;3.20;0.70;;;;;;;8.50;100.00;98863.07;104781;1305;59803;-58
2023/12/25 04:18:16;;;;;;;1.60;0.90;;;;;;;8.48;100.00;98860.57;105139;1303;73456;-59
2023/12/25 04:24:12;;;;;;;26.50;5.80;;;;;;;8.48;100.00;98858.67;104601;1309;71197;-59
2023/12/25 04:27:19;;;;;;;3.80;1.40;;;;;;;8.47;100.00;98865.25;104939;1303;59001;-59
2023/12/25 04:30:26;;;;;;;3.80;1.20;;;;;;;8.45;99.98;98865.48;104647;1305;59052;-59
2023/12/25 04:33:20;;;;;;;1.90;0.50;;;;;;;8.48;99.99;98856.13;105002;1305;73457;-59
2023/12/25 04:36:26;;;;;;;1.70;1.00;;;;;;;8.48;99.99;98863.52;104333;1305;68667;-58
2023/12/25 04:39:34;;;;;;;;;;;;;;;;;;;;;
2023/12/25 04:42:20;;;;;;;3.60;0.50;;;;;;;8.43;99.70;98862.30;104067;1299;60102;-57
2023/12/25 04:45:08;;;;;;;1.20;0.40;;;;;;;8.41;99.84;98866.83;104214;1300;61337;-58
2023/12/25 04:47:54;;;;;;;4.50;0.70;;;;;;;8.36;99.95;98866.84;105438;1292;74685;-58
2023/12/25 04:50:40;;;;;;;1.90;0.70;;;;;;;8.34;99.59;98871.55;104726;1294;67227;-55
2023/12/25 04:53:27;;;;;;;;;;;;;;;8.38;99.75;98866.25;104676;1294;71194;-57
2023/12/25 04:56:13;;;;;;;4.20;0.70;;;;;;;8.35;99.72;98870.80;104652;1293;62217;-54
2023/12/25 04:58:59;;;;;;;;;;;;;;;8.31;99.64;98870.29;104585;1293;60213;-58
2023/12/25 05:01:48;;;;;;;;;;;;;;;8.29;99.44;98872.41;105096;1284;77151;-58
2023/12/25 05:04:36;;;;;;;5.60;0.80;;;;;;;8.32;99.53;98867.30;105478;1285;67470;-57
2023/12/25 05:07:22;;;;;;;6.70;1.10;;;;;;;8.34;99.63;98868.11;105468;1285;74022;-58
2023/12/25 05:10:09;;;;;;;4.40;1.30;;;;;;;8.36;99.57;98860.34;105445;1285;61237;-57
2023/12/25 05:12:55;;;;;;;3.70;0.80;;;;;;;8.40;99.52;98864.65;105409;1288;61850;-57
2023/12/25 05:15:41;;;;;;;8.30;2.10;;;;;;;8.44;99.50;98873.26;105452;1284;75896;-59
2023/12/25 05:18:28;;;;;;;3.30;0.80;;;;;;;8.47;99.34;98860.27;105491;1286;67989;-56
2023/12/25 05:21:14;;;;;;;7.80;1.80;;;;;;;8.48;99.17;98866.59;105484;1285;73207;-58
2023/12/25 05:24:07;;;;;;;7.80;1.80;;;;;;;8.52;98.96;98870.91;81218;1286;10003124;-58
2023/12/25 05:27:13;;;;;;;2.80;0.60;;;;;;;8.55;98.82;98877.14;76860;1285;20072559;-58
2023/12/25 05:30:10;;;;;;;4.60;1.00;;;;;;;8.60;98.69;98883.15;106636;1285;74485;-59
2023/12/25 05:33:37;;;;;;;3.60;1.00;;;;;;;8.63;99.15;98888.21;106722;1285;67992;-59
2023/12/25 05:37:04;;;;;;;5.70;1.00;;;;;;;8.65;99.22;98890.73;106436;1284;205779;-59
2023/12/25 05:40:08;;;;;;;3.20;0.90;;;;;;;8.66;98.90;98885.00;106566;1284;59318;-59
2023/12/25 05:42:57;;;;;;;3.80;1.00;;;;;;;8.68;98.56;98893.03;106755;1284;60140;-59
2023/12/25 05:45:43;;;;;;;6.50;1.20;;;;;;;8.70;98.85;98891.59;106732;1284;73218;-58
2023/12/25 05:48:38;;;;;;;4.20;1.00;;;;;;;8.72;98.76;98890.62;106777;1284;68575;-59
2023/12/25 05:51:28;;;;;;;6.40;1.00;;;;;;;8.77;98.77;98888.38;106672;1285;73046;-58
2023/12/25 05:54:45;;;;;;;5.80;1.00;;;;;;;8.80;98.41;98881.75;106749;1284;58908;-59
2023/12/25 05:58:20;;;;;;;2.70;0.60;;;;;;;8.83;98.53;98880.23;106704;1284;58702;-59
2023/12/25 06:01:32;;;;;;;2.80;0.60;;;;;;;8.89;98.09;98882.77;106733;1285;73395;-59
2023/12/25 06:04:36;;;;;;;2.80;0.60;;;;;;;8.91;98.12;98875.80;97603;1288;10004040;-58
2023/12/25 06:07:53;;;;;;;4.90;1.00;;;;;;;8.95;97.90;98872.57;69904;1284;20071446;-59
2023/12/25 06:10:39;;;;;;;32.00;2.70;;;;;;;8.99;97.95;98872.61;106600;1285;62588;-59
2023/12/25 06:13:55;;;;;;;;;;;;;;;;;;;;;
2023/12/25 06:16:45;;;;;;;14.60;5.00;;;;;;;9.01;97.63;98851.39;106758;1284;59399;-59
2023/12/25 06:23:58;;;;;;;4.80;1.00;;;;;;;8.99;97.00;98850.10;105674;1293;68165;-59
2023/12/25 06:26:44;;;;;;;6.30;1.30;;;;;;;8.96;97.36;98855.55;104662;1293;70208;-57
2023/12/25 06:29:30;;;;;;;44.80;7.80;;;;;;;8.92;97.03;98863.23;104733;1293;61357;-57
2023/12/25 06:32:17;;;;;;;21.30;8.20;;;;;;;8.90;97.47;98875.67;104645;1295;61196;-58
2023/12/25 06:35:04;;;;;;;4.20;0.90;;;;;;;8.87;97.51;98882.49;104656;1296;76052;-57
2023/12/25 06:37:50;;;;;;;2.70;0.90;;;;;;;8.86;97.13;98876.16;105731;1293;277822;-58
2023/12/25 06:40:36;;;;;;;302.00;95.40;;;;;;;8.85;97.26;98881.54;105961;1292;71250;-59
2023/12/25 06:44:14;;;;;;;;;;;;;;;;;;;;;
2023/12/25 06:47:01;;;;;;;17.90;11.50;;;;;;;8.88;96.48;98875.07;105119;1303;59519;-58
2023/12/25 06:49:47;;;;;;;2.30;0.80;;;;;;;8.94;96.40;98888.23;104019;1302;73192;-57
2023/12/25 06:52:34;;;;;;;20.00;7.00;;;;;;;8.96;96.12;98889.39;104025;1303;67746;-57
2023/12/25 06:55:20;;;;;;;4.80;0.70;;;;;;;8.98;95.87;98888.63;104025;1301;77355;-54
2023/12/25 06:58:06;;;;;;;6.50;1.00;;;;;;;8.99;95.98;98896.17;104055;1302;61064;-57
2023/12/25 07:00:53;;;;;;;3.10;1.10;;;;;;;8.95;96.21;98891.83;104393;1294;61199;-58
2023/12/25 07:03:39;;;;;;;2.80;1.10;;;;;;;8.93;95.92;98893.45;104461;1294;73258;-55
2023/12/25 07:06:26;;;;;;;22.80;9.70;;;;;;;8.93;95.96;98899.48;104559;1294;69381;-57
2023/12/25 07:09:14;;;;;;;2.20;0.80;;;;;;;8.95;95.71;98900.08;104553;1294;72056;-58
2023/12/25 07:12:02;;;;;;;4.80;1.30;;;;;;;8.96;95.91;98904.15;104527;1294;61143;-57
2023/12/25 07:14:48;;;;;;;6.00;1.20;;;;;;;8.96;95.91;98899.35;104593;1294;61772;-55
2023/12/25 07:17:35;;;;;;;4.60;1.00;;;;;;;8.96;96.04;98895.75;104526;1294;77466;-57
2023/12/25 07:20:21;;;;;;;5.40;1.20;;;;;;;8.97;95.77;98893.45;104593;1294;67344;-57
2023/12/25 07:23:07;;;;;;;596.10;154.40;;;;;;;9.01;95.58;98891.95;104689;1285;74166;-56
2023/12/25 07:25:54;;;;;;;5.10;1.10;;;;;;;9.07;95.23;98901.36;105300;1286;61135;-57
2023/12/25 07:28:41;;;;;;;3.00;0.90;;;;;;;9.10;95.27;98908.80;105351;1284;61150;-56
2023/12/25 07:31:27;;;;;;;6.10;0.90;;;;;;;9.13;95.03;98910.05;105384;1285;75427;-56
2023/12/25 07:34:13;;;;;;;4.20;1.30;;;;;;;9.18;94.84;98910.74;105345;1289;67306;-56
2023/12/25 07:37:00;;;;;;;780.50;164.70;;;;;;;9.18;95.07;98906.45;105384;1288;71242;-57
2023/12/25 07:39:46;;;;;;;8.10;2.70;;;;;;;9.14;95.40;98908.31;105385;1285;61166;-60
2023/12/25 07:42:32;;;;;;;3.30;1.30;;;;;;;9.11;95.51;98904.48;105360;1285;61205;-57
2023/12/25 07:45:19;;;;;;;4.90;0.90;;;;;;;9.07;95.65;98905.98;105434;1285;73905;-58
2023/12/25 07:48:05;;;;;;;31.10;17.10;;;;;;;9.05;95.73;98902.80;105509;1285;68124;-55
2023/12/25 07:50:52;;;;;;;7.80;1.80;;;;;;;9.03;95.75;98907.02;105467;1285;75185;-57
2023/12/25 07:53:38;;;;;;;167.50;52.70;;;;;;;9.04;95.74;98898.73;105485;1284;61110;-56
2023/12/25 07:56:25;;;;;;;5.90;1.00;;;;;;;9.06;95.48;98898.46;105482;1285;61152;-56
2023/12/25 07:59:11;;;;;;;27.00;9.10;;;;;;;9.09;95.50;98900.95;105507;1285;77376;-57
2023/12/25 08:01:57;;;;;;;112.50;17.00;;;;;;;9.10;95.16;98911.03;105510;1285;68209;-54
2023/12/25 08:04:43;;;;;;;994.60;248.30;;;;;;;9.12;95.07;98914.58;105490;1285;71231;-57
2023/12/25 08:07:30;;;;;;;2.70;1.10;;;;;;;9.12;94.86;98908.53;105523;1285;61279;-57
2023/12/25 08:10:16;;;;;;;7.00;1.10;;;;;;;9.16;94.23;98909.25;105462;1284;63065;-57
2023/12/25 08:13:03;;;;;;;352.10;147.80;;;;;;;9.18;94.13;98920.52;105495;1284;72767;-57
2023/12/25 08:15:49;;;;;;;175.30;59.60;;;;;;;9.20;93.87;98931.13;106789;1284;69448;-59
2023/12/25 08:18:55;;;;;;;4.70;1.10;;;;;;;9.19;93.95;98932.52;106511;1284;343312;-59
2023/12/25 08:22:20;;;;;;;;;;;;;;;;;;;;;
2023/12/25 08:28:42;;;;;;;1.70;1.00;;;;;;;9.21;94.36;98941.05;104780;1303;74569;-57
2023/12/25 08:31:28;;;;;;;;;;;;;;;9.22;94.21;98947.20;104217;1299;68661;-55
2023/12/25 08:34:14;;;;;;;;;;;;;;;9.23;94.20;98949.39;104179;1300;71333;-58
2023/12/25 08:37:01;;;;;;;4.50;1.10;;;;;;;9.22;93.81;98957.67;104161;1300;61411;-58
2023/12/25 08:39:47;;;;;;;4.60;1.70;;;;;;;9.23;94.27;98951.98;104154;1302;61197;-57
2023/12/25 08:42:34;;;;;;;6.10;1.70;;;;;;;9.23;94.41;98955.44;104153;1300;73281;-57
2023/12/25 08:45:20;;;;;;;;;;;;;;;9.24;94.38;98958.65;104148;1299;67257;-58
2023/12/25 08:48:09;;;;;;;;;;;;;;;9.24;94.09;98959.34;105214;1300;71285;-58
2023/12/25 08:50:55;;;;;;;4.10;2.00;;;;;;;9.22;93.69;98961.80;105489;1299;59010;-59
2023/12/25 08:53:49;;;;;;;5.70;1.90;;;;;;;9.22;93.90;98958.89;105539;1298;59005;-59
2023/12/25 08:56:38;;;;;;;11.80;3.10;;;;;;;9.23;93.68;98961.63;105239;1300;73564;-57
2023/12/25 08:59:25;;;;;;;2.60;0.90;;;;;;;9.28;93.33;98961.23;104150;1300;67307;-57
2023/12/25 09:02:11;;;;;;;6.20;1.70;;;;;;;9.30;92.98;98957.23;104190;1299;75258;-57
2023/12/25 09:04:58;;;;;;;;;;;;;;;9.35;92.91;98954.81;104359;1293;61574;-53
2023/12/25 09:07:44;;;;;;;6.40;1.80;;;;;;;9.38;92.76;98959.13;105473;1285;61174;-57
2023/12/25 09:10:30;;;;;;;151.20;35.10;;;;;;;9.42;92.02;98964.13;105476;1285;73327;-58
2023/12/25 09:13:16;;;;;;;7.60;1.70;;;;;;;9.64;91.46;98967.27;105545;1285;67286;-56
2023/12/25 09:16:03;;;;;;;3.00;1.30;;;;;;;9.90;91.44;98967.43;105441;1285;71213;-55
2023/12/25 09:18:57;;;;;;;497.70;80.60;;;;;;;10.22;89.36;98971.83;106759;1284;59563;-58
2023/12/25 09:21:43;;;;;;;6.20;1.20;;;;;;;10.30;88.56;98979.43;106380;1284;59317;-56
2023/12/25 09:24:30;;;;;;;975.30;186.00;;;;;;;10.36;88.41;98967.45;105497;1285;73084;-57
2023/12/25 09:27:16;;;;;;;;;;;;;;;10.25;85.79;98976.36;105480;1284;67275;-58
2023/12/25 09:30:04;;;;;;;2.70;1.30;;;;;;;10.20;85.94;98984.83;105489;1286;74037;-53
2023/12/25 09:32:54;;;;;;;6.80;1.90;;;;;;;10.24;85.46;98980.86;106751;1285;59486;-59
2023/12/25 09:35:40;;;;;;;4.20;1.50;;;;;;;10.26;83.92;98983.55;106161;1285;61279;-57
2023/12/25 09:38:26;;;;;;;;;;;;;;;10.32;84.36;98992.62;105391;1285;75970;-59
2023/12/25 09:41:14;;;;;;;8.50;1.50;;;;;;;10.37;84.38;99002.93;105506;1285;67226;-58
2023/12/25 09:44:01;;;;;;;1938.50;279.10;;;;;;;10.46;84.35;99005.96;105487;1285;71299;-58
2023/12/25 09:46:47;;;;;;;5.70;1.20;;;;;;;10.32;81.98;99018.95;105441;1284;61981;-57
2023/12/25 09:49:35;;;;;;;;;;;;;;;10.22;82.58;99016.77;105508;1284;61299;-56
2023/12/25 09:52:23;;;;;;;1555.20;246.90;;;;;;;10.22;82.25;99025.39;105475;1285;78251;-57
2023/12/25 09:55:09;;;;;;;4.10;1.10;;;;;;;10.24;81.27;99023.95;105558;1285;71302;-57
2023/12/25 09:57:59;;;;;;;16.80;2.60;;;;;;;10.41;81.02;99022.89;105439;1285;71241;-56
2023/12/25 10:00:46;;;;;;;5.90;1.30;;;;;;;10.69;80.16;99028.62;105456;1284;60870;-58
2023/12/25 10:03:33;;;;;;;2.60;0.80;;;;;;;10.80;78.72;99028.33;105519;1285;61651;-58
2023/12/25 10:06:20;;;;;;;14.40;3.30;;;;;;;10.78;79.00;99030.30;105466;1286;73423;-56
2023/12/25 10:09:07;;;;;;;8.80;1.90;;;;;;;10.91;79.63;99031.61;105487;1285;69039;-58
2023/12/25 10:11:53;;;;;;;213.60;45.30;;;;;;;11.38;78.96;99037.83;105475;1285;71848;-57
2023/12/25 10:14:39;;;;;;;12.10;2.80;;;;;;;11.77;77.17;99051.76;105483;1285;61240;-57
2023/12/25 10:17:25;;;;;;;3.70;1.00;;;;;;;12.04;76.87;99060.36;105460;1284;61133;-57
2023/12/25 10:20:18;;;;;;;11.70;3.70;;;;;;;12.23;75.61;99060.84;105477;1285;75997;-56
2023/12/25 10:24:11;;;;;;;3.60;0.90;;;;;;;12.14;75.56;99051.77;106725;1285;67472;-57
2023/12/25 10:27:09;;;;;;;1182.40;232.10;;;;;;;12.03;72.95;99068.68;105653;1293;72570;-57
2023/12/25 10:29:55;;;;;;;11.10;3.40;;;;;;;11.85;71.36;99069.17;104599;1294;61418;-58
2023/12/25 10:32:42;;;;;;;4.30;1.20;;;;;;;11.91;70.36;99069.11;104597;1294;61064;-56
2023/12/25 10:35:38;;;;;;;4.10;1.10;;;;;;;11.94;70.82;99071.90;104609;1294;73457;-56
2023/12/25 10:38:28;;;;;;;5.30;1.40;;;;;;;11.95;70.10;99072.17;104583;1294;67248;-58
2023/12/25 10:41:20;;;;;;;4.70;1.20;;;;;;;11.67;69.63;99080.52;104594;1298;71612;-56
2023/12/25 10:44:09;;;;;;;8.40;1.50;;;;;;;11.89;70.42;99076.27;104624;1294;61408;-57
2023/12/25 10:46:58;;;;;;;5.90;1.50;;;;;;;11.83;69.05;99072.39;104585;1299;61153;-57
2023/12/25 10:49:46;;;;;;;8.00;1.60;;;;;;;11.83;68.94;99081.89;104599;1298;73293;-58
2023/12/25 10:52:32;;;;;;;4.50;1.40;;;;;;;11.78;70.64;99086.27;104611;1294;67301;-57
2023/12/25 10:55:26;;;;;;;;;;;;;;;11.66;68.98;99083.84;105865;1293;72592;-58
2023/12/25 10:58:28;;;;;;;5.70;1.40;;;;;;;11.63;67.96;99091.39;105884;1294;59055;-57
2023/12/25 11:01:49;;;;;;;;;;;;;;;;;;;;;
2023/12/25 11:04:52;;;;;;;;;;;;;;;;;;;;;
2023/12/25 11:07:41;;;;;;;89.40;8.50;;;;;;;12.07;68.06;99095.77;106234;1284;66465;-56
2023/12/25 11:10:27;;;;;;;8.00;1.80;;;;;;;11.78;66.90;99096.95;105428;1288;73419;-56
2023/12/25 11:13:14;;;;;;;7.40;1.70;;;;;;;11.61;67.00;99100.98;105419;1285;61246;-57
2023/12/25 11:16:00;;;;;;;2.70;1.20;;;;;;;11.44;65.55;99100.87;106434;1286;61729;-58
2023/12/25 11:18:50;;;;;;;5.20;1.10;;;;;;;11.21;66.39;99098.09;106172;1285;74505;-56
2023/12/25 11:21:37;;;;;;;7.40;1.20;;;;;;;11.06;65.33;99097.55;105468;1285;67224;-57
2023/12/25 11:24:28;;;;;;;4.30;1.00;;;;;;;11.03;65.59;99106.14;105742;1285;73977;-55
2023/12/25 11:27:17;;;;;;;5.20;1.10;;;;;;;10.94;66.93;99105.95;105942;1285;59117;-57
2023/12/25 11:30:07;;;;;;;3.70;1.10;;;;;;;10.93;65.37;99106.67;105432;1288;61699;-56
2023/12/25 11:32:54;;;;;;;6.50;1.20;;;;;;;11.05;65.53;99105.67;106066;1286;73460;-57
2023/12/25 11:35:41;;;;;;;6.30;1.90;;;;;;;11.33;64.96;99108.43;105469;1285;67802;-56
2023/12/25 11:38:28;;;;;;;5.80;1.20;;;;;;;11.57;63.92;99102.52;105419;1285;73936;-56
2023/12/25 11:41:17;;;;;;;4.40;1.20;;;;;;;11.84;65.87;99108.80;105454;1285;61231;-55
2023/12/25 11:44:06;;;;;;;264.90;85.60;;;;;;;11.99;64.76;99114.13;105537;1284;61269;-57
2023/12/25 11:46:58;;;;;;;46.80;2.70;;;;;;;12.16;61.33;99119.56;106762;1284;74468;-59
2023/12/25 11:50:07;;;;;;;;;;;;;;;;;;;;;
2023/12/25 11:53:22;;;;;;;13.50;4.90;;;;;;;11.95;60.43;99126.41;106318;1284;71302;-59
2023/12/25 11:56:19;;;;;;;;;;;;;;;;;;;;;
2023/12/25 11:59:05;;;;;;;5.60;1.60;;;;;;;11.31;61.32;99141.31;105525;1285;61684;-57
2023/12/25 12:01:51;;;;;;;5.30;1.20;;;;;;;11.12;60.20;99148.48;105481;1284;73268;-57
2023/12/25 12:04:38;;;;;;;4.10;1.20;;;;;;;10.89;60.17;99143.60;105489;1285;67174;-57
2023/12/25 12:07:24;;;;;;;9.80;2.10;;;;;;;10.78;61.16;99167.67;105508;1285;75352;-55
2023/12/25 12:10:14;;;;;;;5.80;1.50;;;;;;;10.67;61.70;99173.46;105483;1285;61096;-57
2023/12/25 12:13:01;;;;;;;5.20;1.40;;;;;;;10.74;61.73;99182.13;105527;1288;61182;-57
2023/12/25 12:15:48;;;;;;;44.40;7.20;;;;;;;10.77;61.99;99181.48;105497;1285;73257;-57
2023/12/25 12:19:13;;;;;;;;;;;;;;;;;;;;;
2023/12/25 12:21:59;;;;;;;4.80;1.50;;;;;;;10.76;61.70;99184.83;105843;1286;71460;-57
2023/12/25 12:24:46;;;;;;;4.60;1.20;;;;;;;10.65;61.65;99188.02;105475;1285;61274;-57
2023/12/25 12:27:32;;;;;;;5.80;1.40;;;;;;;10.45;61.22;99194.11;105489;1284;61667;-56
2023/12/25 12:30:18;;;;;;;5.30;1.50;;;;;;;10.38;61.68;99193.40;105539;1285;76282;-55
2023/12/25 12:33:05;;;;;;;7.10;1.30;;;;;;;10.32;62.05;99205.54;105488;1288;67286;-56
2023/12/25 12:35:51;;;;;;;3.50;0.90;;;;;;;10.25;62.15;99207.82;105468;1284;71198;-56
2023/12/25 12:38:44;;;;;;;8.20;1.80;;;;;;;10.22;62.18;99210.88;105534;1284;61712;-54
2023/12/25 12:41:31;;;;;;;8.10;1.80;;;;;;;10.19;62.70;99218.20;105483;1286;61198;-54
2023/12/25 12:44:17;;;;;;;6.80;1.70;;;;;;;10.40;61.28;99223.45;105458;1286;73350;-56
2023/12/25 12:47:07;;;;;;;7.90;1.60;;;;;;;10.42;61.21;99227.99;105396;1284;69892;-56
2023/12/25 12:49:53;;;;;;;4.70;1.40;;;;;;;10.29;61.28;99252.11;105392;1285;74078;-54
2023/12/25 12:52:39;;;;;;;7.00;3.90;;;;;;;10.12;60.84;99248.41;105467;1285;61287;-56
2023/12/25 12:55:26;;;;;;;6.00;1.50;;;;;;;9.94;60.50;99250.05;105244;1288;59527;-56
2023/12/25 12:58:13;;;;;;;11.40;3.10;;;;;;;9.82;61.29;99265.66;105478;1288;73574;-57
2023/12/25 13:00:59;;;;;;;9.30;1.50;;;;;;;9.74;61.32;99268.68;105504;1286;66538;-53
2023/12/25 13:04:06;;;;;;;5.00;1.20;;;;;;;9.65;61.72;99271.24;102461;1285;5003677;-58
2023/12/25 13:07:07;;;;;;;6.50;1.60;;;;;;;9.51;61.51;99282.00;106699;1285;58712;-58
2023/12/25 13:09:53;;;;;;;8.80;1.60;;;;;;;9.42;62.00;99286.78;106730;1284;59484;-58
2023/12/25 13:12:51;;;;;;;9.00;2.00;;;;;;;9.33;60.83;99290.37;106749;1285;74592;-58
2023/12/25 13:15:37;;;;;;;6.20;1.80;;;;;;;9.25;60.72;99296.82;105610;1285;68610;-57
2023/12/25 13:18:24;;;;;;;65.60;18.90;;;;;;;9.18;59.90;99309.41;105460;1288;71271;-55
2023/12/25 13:21:10;;;;;;;12.30;2.60;;;;;;;9.17;59.69;99317.54;105480;1286;61141;-57
2023/12/25 13:23:56;;;;;;;5.80;1.50;;;;;;;9.20;58.77;99317.62;105484;1285;61220;-56
2023/12/25 13:26:42;;;;;;;10.30;1.60;;;;;;;9.23;59.15;99313.56;105447;1285;74993;-60
2023/12/25 13:29:29;;;;;;;5.20;1.30;;;;;;;9.35;60.26;99315.22;105456;1287;67209;-56
2023/12/25 13:32:16;;;;;;;;;;;;;;;9.35;58.16;99309.55;105453;1285;74101;-56
2023/12/25 13:35:02;;;;;;;6.50;1.50;;;;;;;9.36;59.49;99311.25;105481;1284;61518;-55
2023/12/25 13:37:48;;;;;;;9.30;1.80;;;;;;;9.34;58.17;99303.77;106821;1284;59220;-57
2023/12/25 13:40:38;;;;;;;8.00;1.80;;;;;;;9.28;57.97;99318.40;106756;1285;73249;-58
2023/12/25 13:43:24;;;;;;;35.10;16.30;;;;;;;9.20;58.18;99321.23;106339;1285;67301;-55
2023/12/25 13:46:10;;;;;;;13.40;1.90;;;;;;;9.11;57.92;99327.00;105491;1286;72948;-57
2023/12/25 13:48:56;;;;;;;8.80;1.80;;;;;;;9.04;58.09;99331.01;105491;1285;61365;-57
2023/12/25 13:51:43;;;;;;;7.00;1.50;;;;;;;8.97;58.18;99335.00;105459;1285;61143;-54
2023/12/25 13:54:29;;;;;;;7.40;1.80;;;;;;;8.88;58.78;99344.37;105504;1286;74066;-53
2023/12/25 13:57:16;;;;;;;12.00;3.40;;;;;;;8.79;58.88;99351.86;105483;1288;67326;-56
2023/12/25 14:00:05;;;;;;;13.80;1.90;;;;;;;8.70;58.91;99356.59;32576;1285;20001147;-58
2023/12/25 14:02:51;;;;;;;10.50;1.90;;;;;;;8.60;59.23;99358.42;106699;1285;67284;-58
2023/12/25 14:05:37;;;;;;;10.70;2.10;;;;;;;8.52;59.34;99367.23;106362;1285;71364;-55
2023/12/25 14:08:23;;;;;;;5.50;2.00;;;;;;;8.51;59.88;99373.11;105495;1288;61021;-57
2023/12/25 14:11:09;;;;;;;8.70;1.80;;;;;;;8.50;59.70;99376.23;105474;1286;63097;-54
2023/12/25 14:13:56;;;;;;;10.10;3.30;;;;;;;8.48;59.88;99383.33;105513;1286;72206;-57
2023/12/25 14:16:42;;;;;;;12.10;2.00;;;;;;;8.45;60.13;99382.03;105500;1286;67222;-56